Etusivu
METAR-TAF:

METAR-TAF

Lentoasemat :

Hihifon lentoasema

Wallis, Ranska

Leveyspiiri: 13-14S, Pituuspiiri: 176-10W, korkeus merenpinnasta: 23 m

METAR: puuttuu

Aika: 03:16 (15:16 UTC)

Sääennuste

Tämä raportti tehtiin 4 tuntia ja 16 minuuttia sitten, kello 11.00 UTC
Ennuste voimassa 25. päivästä klo 12 UTC - 26. päivään klo 12 UTC
Tuuli 2 kn eri suunnista
Näkyvyys 10 km tai enemmän
Muutamia pilviä 2000 ft:n korkeudessa
Todennäköisyys 30% :
Ajoittain
26. päivästä klo 09 UTC - 26. päivään klo 12 UTC
Näkyvyys: 4000 m
Muutamia pilviä 3000 ft:n korkeudessa, Kasvava cumulus-pilvi.
vesikuuroja

TAF: NLWW 251100Z 2512/2612 VRB02KT 9999 FEW020 PROB30 TEMPO 2609/2612 4000 SHRA FEW030TCU

Säähavainnot ja -ennusteet yli 4000 lentoasemalta (METAR- ja TAF-raportit).

Käytössä olevat sääasemat on merkitty karttaan keltaisilla ja punaisilla pisteillä.

Aseta hiiri pisteen päälle nähdäksesi sääaseman nimen.

Klikkaa sitten nähdäksesi säähavainnot ja -ennusteet.

Kartan vaihtaminen: klikkaa mustalla rastilla varustettuja vihreitä pisteitä, niin voit zoomata sisään; viivalla varustettua vihreää pistettä, niin voit zoomata ulos tai vihreitä nuolia, niin pääset viereisille kartoille.


METAR-TAF: